Time;durP1;ratioP1;P1;durP2;ratioP2;P2;SDS_P1;SDS_P2;PMS_P1;PMS_P2;Temp;Humidity;BMP_temperature;BMP_pressure;BME280_temperature;BME280_humidity;BME280_pressure;Samples;Min_cycle;Max_cycle;Signal;HPM_P1;HPM_P2
2022/04/26 03:38:04;;;;;;;;;23.00;22.33;;;;;;;;5017396;28;45722;-70
2022/04/26 03:40:29;;;;;;;;;15.00;15.00;;;;;;;;5016737;28;46366;-70
2022/04/26 03:42:54;;;;;;;;;23.33;16.00;;;;;;;;5017431;28;45370;-69
2022/04/26 03:45:19;;;;;;;;;15.00;14.00;;;;;;;;5017363;28;45301;-69
2022/04/26 03:47:45;;;;;;;;;17.00;15.00;;;;;;;;5017839;28;45472;-70
2022/04/26 03:50:10;;;;;;;;;15.67;15.67;;;;;;;;5016879;28;47146;-70
2022/04/26 03:52:36;;;;;;;;;16.00;14.33;;;;;;;;5016392;28;45469;-70
2022/04/26 03:55:03;;;;;;;;;15.00;12.33;;;;;;;;5017034;28;45323;-69
2022/04/26 03:57:28;;;;;;;;;14.67;13.00;;;;;;;;5017139;28;45413;-69
2022/04/26 03:59:53;;;;;;;;;16.00;12.67;;;;;;;;5017035;28;46017;-70
2022/04/26 04:02:19;;;;;;;;;13.33;12.00;;;;;;;;5017151;28;45343;-69
2022/04/26 04:04:45;;;;;;;;;17.67;15.00;;;;;;;;5017173;28;45407;-70
2022/04/26 04:07:10;;;;;;;;;12.67;12.67;;;;;;;;5016641;28;45424;-69
2022/04/26 04:09:35;;;;;;;;;10.33;10.33;;;;;;;;5016958;28;45694;-70
2022/04/26 04:12:00;;;;;;;;;16.33;14.67;;;;;;;;5016335;28;45537;-70
2022/04/26 04:14:26;;;;;;;;;15.33;13.00;;;;;;;;5016663;28;45451;-71
2022/04/26 04:16:51;;;;;;;;;15.67;13.00;;;;;;;;5016904;28;45385;-70
2022/04/26 04:19:19;;;;;;;;;15.00;14.67;;;;;;;;5016440;28;46505;-71
2022/04/26 04:21:45;;;;;;;;;12.00;12.00;;;;;;;;5015917;28;45281;-71
2022/04/26 04:24:11;;;;;;;;;12.67;10.00;;;;;;;;5015982;28;45476;-71
2022/04/26 04:26:37;;;;;;;;;14.33;11.67;;;;;;;;5016770;28;45319;-71
2022/04/26 04:29:03;;;;;;;;;15.50;14.00;;;;;;;;5016437;28;46391;-71
2022/04/26 04:31:28;;;;;;;;;16.00;12.67;;;;;;;;5016425;28;45493;-71
2022/04/26 04:33:53;;;;;;;;;14.33;13.33;;;;;;;;5016278;28;45461;-73
2022/04/26 04:36:18;;;;;;;;;12.00;12.00;;;;;;;;5016692;28;45422;-70
2022/04/26 04:38:43;;;;;;;;;15.00;14.67;;;;;;;;5015720;28;47472;-70
2022/04/26 04:41:09;;;;;;;;;19.67;16.67;;;;;;;;5016369;28;45439;-72
2022/04/26 04:43:34;;;;;;;;;15.67;14.00;;;;;;;;5016184;28;45371;-73
2022/04/26 04:46:00;;;;;;;;;18.00;14.67;;;;;;;;5016182;28;45377;-70
2022/04/26 04:48:25;;;;;;;;;17.33;15.67;;;;;;;;5015912;28;47084;-70
2022/04/26 04:50:50;;;;;;;;;16.33;14.00;;;;;;;;5016567;28;45298;-70
2022/04/26 04:53:19;;;;;;;;;16.67;13.67;;;;;;;;5016114;28;45467;-71
2022/04/26 04:55:45;;;;;;;;;16.00;16.00;;;;;;;;5016154;28;45460;-73
2022/04/26 04:58:10;;;;;;;;;16.67;16.67;;;;;;;;5015737;28;45470;-73
2022/04/26 05:00:35;;;;;;;;;3.67;2.00;;;;;;;;5015342;28;45366;-73
2022/04/26 05:03:00;;;;;;;;;17.67;12.67;;;;;;;;5016559;28;45317;-73
2022/04/26 05:05:26;;;;;;;;;14.67;12.00;;;;;;;;5017310;28;45298;-73
2022/04/26 05:07:52;;;;;;;;;10.33;10.33;;;;;;;;5016425;28;47636;-73
2022/04/26 05:10:17;;;;;;;;;10.00;10.00;;;;;;;;5016531;28;45850;-72
2022/04/26 05:12:43;;;;;;;;;13.00;10.67;;;;;;;;5015817;28;45326;-72
2022/04/26 05:15:08;;;;;;;;;15.33;14.00;;;;;;;;5016475;28;45452;-72
2022/04/26 05:17:33;;;;;;;;;13.00;10.33;;;;;;;;5016796;28;45543;-72
2022/04/26 05:20:00;;;;;;;;;14.67;13.33;;;;;;;;5016829;28;45740;-72
2022/04/26 05:22:26;;;;;;;;;14.00;9.33;;;;;;;;5016665;28;45338;-72
2022/04/26 05:24:54;;;;;;;;;15.33;11.33;;;;;;;;5016623;28;45378;-72
2022/04/26 05:27:26;;;;;;;;;14.33;12.67;;;;;;;;4998023;28;46387;-72
2022/04/26 05:29:52;;;;;;;;;14.00;11.00;;;;;;;;5015768;28;45406;-72
2022/04/26 05:32:21;;;;;;;;;12.00;11.33;;;;;;;;5016592;28;45390;-72
2022/04/26 05:34:47;;;;;;;;;15.00;11.00;;;;;;;;5016792;28;45437;-72
2022/04/26 05:37:12;;;;;;;;;16.00;13.00;;;;;;;;5019589;28;47191;-72
2022/04/26 05:39:37;;;;;;;;;23.67;20.00;;;;;;;;5019842;28;45358;-72
2022/04/26 05:42:03;;;;;;;;;10.33;10.33;;;;;;;;5020218;28;45300;-72
2022/04/26 05:44:28;;;;;;;;;24.00;16.67;;;;;;;;5020509;28;45532;-72
2022/04/26 05:46:53;;;;;;;;;12.67;11.33;;;;;;;;5019668;28;46190;-72
2022/04/26 05:49:18;;;;;;;;;13.67;11.67;;;;;;;;5020121;28;45421;-72
2022/04/26 05:51:43;;;;;;;;;15.67;14.00;;;;;;;;5019896;28;45335;-73
2022/04/26 05:54:09;;;;;;;;;13.00;10.00;;;;;;;;5019911;28;45371;-71
2022/04/26 05:56:34;;;;;;;;;8.00;8.00;;;;;;;;5019074;28;45370;-71
2022/04/26 05:58:59;;;;;;;;;7.00;6.00;;;;;;;;5019659;28;45279;-71
2022/04/26 06:01:24;;;;;;;;;16.00;12.33;;;;;;;;5001950;28;45285;-72
2022/04/26 06:03:49;;;;;;;;;12.67;9.67;;;;;;;;5019955;28;45264;-72
2022/04/26 06:06:15;;;;;;;;;10.67;9.67;;;;;;;;5019524;28;45257;-71
2022/04/26 06:08:40;;;;;;;;;10.33;9.00;;;;;;;;5019895;28;45323;-71
2022/04/26 06:11:06;;;;;;;;;16.00;13.33;;;;;;;;5019608;28;45381;-72
2022/04/26 06:13:31;;;;;;;;;12.33;9.00;;;;;;;;5019865;28;45490;-72
2022/04/26 06:15:56;;;;;;;;;12.00;12.00;;;;;;;;5019076;28;45616;-72
2022/04/26 06:18:21;;;;;;;;;14.67;11.00;;;;;;;;5019010;28;45407;-72
2022/04/26 06:20:47;;;;;;;;;10.67;8.00;;;;;;;;5019573;28;45343;-72
2022/04/26 06:23:12;;;;;;;;;12.00;10.00;;;;;;;;5019733;28;45645;-72
2022/04/26 06:25:39;;;;;;;;;6.00;6.00;;;;;;;;5019255;28;46496;-72
2022/04/26 06:28:05;;;;;;;;;8.00;8.00;;;;;;;;5019382;28;45377;-73
2022/04/26 06:30:31;;;;;;;;;8.33;8.33;;;;;;;;5019102;28;45161;-73
2022/04/26 06:32:56;;;;;;;;;8.67;6.67;;;;;;;;5019459;28;45268;-73
2022/04/26 06:35:22;;;;;;;;;6.00;6.00;;;;;;;;5018556;28;45366;-73
2022/04/26 06:37:48;;;;;;;;;10.00;7.67;;;;;;;;5019272;28;45495;-73
2022/04/26 06:40:13;;;;;;;;;8.00;7.00;;;;;;;;5019341;28;45355;-72
2022/04/26 06:42:39;;;;;;;;;5.67;5.67;;;;;;;;5019433;28;45311;-73
2022/04/26 06:45:04;;;;;;;;;6.00;6.00;;;;;;;;5018760;28;47081;-72
2022/04/26 06:47:29;;;;;;;;;9.00;7.00;;;;;;;;5018886;28;45335;-72
2022/04/26 06:49:55;;;;;;;;;15.33;8.00;;;;;;;;5019278;28;45311;-72
2022/04/26 06:52:20;;;;;;;;;8.00;7.67;;;;;;;;5019107;28;45398;-72
2022/04/26 06:54:45;;;;;;;;;9.67;9.67;;;;;;;;5018928;28;46324;-72
2022/04/26 06:57:11;;;;;;;;;6.67;6.67;;;;;;;;5034178;28;45392;-72
2022/04/26 06:59:36;;;;;;;;;6.67;6.67;;;;;;;;5018880;28;45379;-72
2022/04/26 07:02:01;;;;;;;;;7.33;7.33;;;;;;;;5018992;28;45572;-72
2022/04/26 07:04:27;;;;;;;;;8.00;8.00;;;;;;;;5018481;28;45454;-72
2022/04/26 07:06:52;;;;;;;;;7.00;7.00;;;;;;;;5018888;28;45399;-72
2022/04/26 07:09:18;;;;;;;;;10.33;10.33;;;;;;;;5019116;28;45314;-73
2022/04/26 07:11:45;;;;;;;;;10.00;8.00;;;;;;;;5019080;28;45323;-72
2022/04/26 07:14:11;;;;;;;;;11.00;9.67;;;;;;;;5018598;28;46492;-72
2022/04/26 07:16:36;;;;;;;;;12.33;8.33;;;;;;;;5018433;28;45788;-73
2022/04/26 07:19:01;;;;;;;;;9.33;8.00;;;;;;;;5018745;28;45207;-73
2022/04/26 07:21:27;;;;;;;;;11.33;10.00;;;;;;;;5018982;28;45291;-73
2022/04/26 07:23:52;;;;;;;;;11.00;8.33;;;;;;;;5018539;28;46364;-73
2022/04/26 07:26:17;;;;;;;;;12.67;10.67;;;;;;;;5018460;28;45294;-73
2022/04/26 07:28:42;;;;;;;;;8.33;8.33;;;;;;;;5018438;28;45335;-73
2022/04/26 07:31:08;;;;;;;;;10.00;10.00;;;;;;;;5018629;28;45248;-73
2022/04/26 07:36:19;;;;;;;;;8.33;8.33;;;;;;;;5018197;28;45338;-73
2022/04/26 07:38:45;;;;;;;;;12.00;9.00;;;;;;;;5017015;28;45469;-73
2022/04/26 07:41:11;;;;;;;;;11.00;8.00;;;;;;;;5018128;28;45441;-73
2022/04/26 07:43:36;;;;;;;;;9.67;9.67;;;;;;;;5017830;28;46175;-73
2022/04/26 07:46:02;;;;;;;;;10.00;10.00;;;;;;;;5017577;28;45350;-74
2022/04/26 07:48:27;;;;;;;;;10.33;9.00;;;;;;;;5017909;28;45361;-74
2022/04/26 07:50:52;;;;;;;;;11.67;10.00;;;;;;;;5018086;28;45493;-73
2022/04/26 07:53:18;;;;;;;;;8.67;8.67;;;;;;;;5017540;28;45488;-71
2022/04/26 07:55:43;;;;;;;;;9.00;8.00;;;;;;;;5017859;28;45498;-71
2022/04/26 07:58:09;;;;;;;;;9.00;7.33;;;;;;;;5017240;28;45148;-70
2022/04/26 08:00:35;;;;;;;;;15.00;12.00;;;;;;;;5017816;28;45318;-74
2022/04/26 08:03:02;;;;;;;;;7.33;6.33;;;;;;;;5016844;28;45155;-70
2022/04/26 08:05:27;;;;;;;;;10.67;7.33;;;;;;;;5017515;28;45510;-72
2022/04/26 08:07:53;;;;;;;;;12.67;9.67;;;;;;;;5017448;28;45232;-72
2022/04/26 08:10:18;;;;;;;;;9.67;9.00;;;;;;;;5017844;28;45257;-70
2022/04/26 08:12:43;;;;;;;;;9.33;9.33;;;;;;;;5017372;28;46404;-72
2022/04/26 08:15:10;;;;;;;;;16.33;12.00;;;;;;;;5017171;28;45385;-73
2022/04/26 08:17:35;;;;;;;;;13.67;10.67;;;;;;;;5017608;28;45445;-72
2022/04/26 08:20:01;;;;;;;;;11.00;9.67;;;;;;;;5017623;28;45303;-72
2022/04/26 08:22:26;;;;;;;;;9.00;8.00;;;;;;;;5017618;28;46560;-72
2022/04/26 08:27:36;;;;;;;;;11.33;10.00;;;;;;;;5017526;28;45315;-71
2022/04/26 08:30:03;;;;;;;;;12.00;10.00;;;;;;;;5017497;28;45454;-72
2022/04/26 08:32:37;;;;;;;;;11.67;8.33;;;;;;;;5017069;28;46519;-71
2022/04/26 08:35:02;;;;;;;;;12.67;10.33;;;;;;;;5024573;28;45444;-71
2022/04/26 08:37:28;;;;;;;;;7.00;7.00;;;;;;;;5037125;28;45324;-71
2022/04/26 08:39:55;;;;;;;;;9.00;7.00;;;;;;;;5036099;28;45324;-71
2022/04/26 08:42:33;;;;;;;;;10.33;6.00;;;;;;;;5041724;28;46323;-70
2022/04/26 08:44:58;;;;;;;;;6.00;5.33;;;;;;;;5036272;28;45385;-70
2022/04/26 08:52:51;;;;;;;;;8.33;6.67;;;;;;;;5036525;28;45421;-72
2022/04/26 08:55:17;;;;;;;;;5.00;5.00;;;;;;;;5036657;28;45350;-71
2022/04/26 08:57:42;;;;;;;;;6.00;5.33;;;;;;;;5036935;28;45380;-70
2022/04/26 09:00:11;;;;;;;;;6.00;5.00;;;;;;;;5037086;28;45551;-70
2022/04/26 09:02:36;;;;;;;;;7.00;6.67;;;;;;;;5036831;28;45515;-70
2022/04/26 09:05:08;;;;;;;;;5.00;5.00;;;;;;;;5036879;28;45295;-70
2022/04/26 09:07:34;;;;;;;;;5.33;5.00;;;;;;;;5036929;28;45592;-71
2022/04/26 09:10:06;;;;;;;;;10.67;8.00;;;;;;;;5038541;28;45395;-70
2022/04/26 09:12:31;;;;;;;;;6.67;6.00;;;;;;;;5040097;28;46688;-69
2022/04/26 09:15:11;;;;;;;;;17.33;14.00;;;;;;;;5040251;28;45338;-71
2022/04/26 09:17:37;;;;;;;;;10.67;10.00;;;;;;;;5040510;28;45402;-71
2022/04/26 09:20:02;;;;;;;;;11.67;9.33;;;;;;;;5040631;28;45408;-70
2022/04/26 09:22:28;;;;;;;;;12.33;9.00;;;;;;;;5040205;28;45821;-70
2022/04/26 09:24:59;;;;;;;;;18.00;15.33;;;;;;;;5040399;28;45152;-70
2022/04/26 09:27:25;;;;;;;;;12.67;11.00;;;;;;;;5040183;28;45408;-70
2022/04/26 09:29:50;;;;;;;;;9.67;8.67;;;;;;;;5040312;28;45398;-71
2022/04/26 09:32:16;;;;;;;;;7.33;7.33;;;;;;;;5040302;28;46570;-71
2022/04/26 09:34:41;;;;;;;;;5.00;4.00;;;;;;;;5040225;28;45301;-70
2022/04/26 09:37:06;;;;;;;;;7.67;5.33;;;;;;;;5040379;28;45387;-70
2022/04/26 09:39:32;;;;;;;;;7.67;7.33;;;;;;;;5040283;28;45454;-70
2022/04/26 09:41:57;;;;;;;;;8.33;6.67;;;;;;;;5039784;28;46687;-71
2022/04/26 09:44:29;;;;;;;;;7.67;7.67;;;;;;;;5040071;28;45262;-70
2022/04/26 09:46:55;;;;;;;;;8.67;6.67;;;;;;;;5039838;28;45397;-70
2022/04/26 09:49:24;;;;;;;;;9.67;7.00;;;;;;;;5040219;28;45494;-69
2022/04/26 09:51:59;;;;;;;;;8.00;8.00;;;;;;;;5021809;28;46051;-70
2022/04/26 09:54:25;;;;;;;;;8.33;8.33;;;;;;;;5039885;28;45209;-70
2022/04/26 09:56:51;;;;;;;;;5.33;5.33;;;;;;;;5039630;28;45490;-70
2022/04/26 09:59:29;;;;;;;;;9.00;8.00;;;;;;;;5040038;28;45211;-70
2022/04/26 10:01:56;;;;;;;;;10.33;9.00;;;;;;;;5039382;28;46550;-70
2022/04/26 10:04:22;;;;;;;;;7.33;7.33;;;;;;;;5039400;28;45406;-70
2022/04/26 10:06:52;;;;;;;;;6.00;5.33;;;;;;;;5039797;28;45251;-71
2022/04/26 10:09:18;;;;;;;;;7.33;6.67;;;;;;;;5039593;28;45338;-69
2022/04/26 10:11:43;;;;;;;;;5.67;5.67;;;;;;;;5040918;28;46215;-70
2022/04/26 10:14:09;;;;;;;;;5.00;5.00;;;;;;;;5038239;28;45388;-70
2022/04/26 10:16:35;;;;;;;;;8.00;5.33;;;;;;;;5038994;28;45297;-70
2022/04/26 10:19:12;;;;;;;;;6.33;5.67;;;;;;;;5039536;28;45354;-71
2022/04/26 10:21:40;;;;;;;;;5.00;5.00;;;;;;;;5038553;28;46554;-70
2022/04/26 10:24:05;;;;;;;;;5.33;5.00;;;;;;;;5039129;28;45548;-71
2022/04/26 10:26:31;;;;;;;;;4.33;4.33;;;;;;;;5039461;28;45315;-69
2022/04/26 10:29:02;;;;;;;;;6.33;6.00;;;;;;;;5042231;28;45456;-69
2022/04/26 10:31:40;;;;;;;;;5.00;5.00;;;;;;;;5025277;28;45499;-70
2022/04/26 10:34:16;;;;;;;;;6.67;6.67;;;;;;;;5018901;28;45351;-70
2022/04/26 10:36:41;;;;;;;;;8.00;5.67;;;;;;;;5019511;28;45351;-70
2022/04/26 10:39:07;;;;;;;;;6.33;5.33;;;;;;;;5019228;28;45283;-70
2022/04/26 10:41:37;;;;;;;;;6.67;6.67;;;;;;;;5019204;28;45404;-70
2022/04/26 10:44:15;;;;;;;;;3.67;3.67;;;;;;;;5019080;28;45342;-71
2022/04/26 10:46:41;;;;;;;;;6.00;6.00;;;;;;;;5019031;28;45437;-70
2022/04/26 10:49:25;;;;;;;;;7.00;7.00;;;;;;;;5019458;28;45393;-69
2022/04/26 10:51:55;;;;;;;;;6.33;6.00;;;;;;;;5018771;28;47586;-70
2022/04/26 10:54:39;;;;;;;;;5.00;5.00;;;;;;;;5018861;28;45398;-70
2022/04/26 10:57:04;;;;;;;;;10.33;9.67;;;;;;;;5018836;28;45418;-69
2022/04/26 10:59:29;;;;;;;;;8.33;6.67;;;;;;;;5019043;28;45360;-70
2022/04/26 11:01:55;;;;;;;;;11.67;10.00;;;;;;;;5018689;28;46634;-70
2022/04/26 11:04:20;;;;;;;;;7.33;6.67;;;;;;;;5018763;28;45428;-70
2022/04/26 11:06:47;;;;;;;;;10.00;6.00;;;;;;;;5019103;28;45394;-70
2022/04/26 11:09:14;;;;;;;;;9.00;7.33;;;;;;;;5019153;28;45422;-70
2022/04/26 11:12:05;;;;;;;;;11.00;10.00;;;;;;;;5018720;28;45381;-70
2022/04/26 11:14:31;;;;;;;;;13.00;11.00;;;;;;;;5017089;28;45398;-70
2022/04/26 11:16:57;;;;;;;;;11.67;10.00;;;;;;;;5018577;28;45366;-71
2022/04/26 11:19:30;;;;;;;;;12.67;11.00;;;;;;;;5018628;28;45473;-71
2022/04/26 11:21:55;;;;;;;;;12.00;12.00;;;;;;;;5018100;28;46059;-69
2022/04/26 11:29:52;;;;;;;;;14.00;13.67;;;;;;;;5018613;28;45331;-69
2022/04/26 11:32:30;;;;;;;;;11.33;10.67;;;;;;;;5017756;28;46283;-69
2022/04/26 11:34:56;;;;;;;;;8.67;8.67;;;;;;;;5017445;28;45410;-70
2022/04/26 11:37:21;;;;;;;;;13.00;11.00;;;;;;;;5018332;28;45185;-70
2022/04/26 11:39:47;;;;;;;;;10.00;10.00;;;;;;;;5018463;28;45224;-72
2022/04/26 11:42:12;;;;;;;;;13.33;12.00;;;;;;;;5018190;28;45248;-71
2022/04/26 11:44:54;;;;;;;;;6.33;6.33;;;;;;;;5018275;28;45277;-70
2022/04/26 11:47:19;;;;;;;;;6.67;6.67;;;;;;;;5018133;28;45561;-70
2022/04/26 11:49:45;;;;;;;;;9.00;7.67;;;;;;;;5028967;28;45440;-70
2022/04/26 11:52:10;;;;;;;;;7.00;7.00;;;;;;;;5044953;28;45482;-70
2022/04/26 11:54:46;;;;;;;;;7.33;7.00;;;;;;;;5145184;27;45328;-72
2022/04/26 11:57:13;;;;;;;;;9.00;8.00;;;;;;;;5115127;27;45236;-72
2022/04/26 11:59:39;;;;;;;;;10.33;10.33;;;;;;;;5110670;27;45285;-72
2022/04/26 12:02:05;;;;;;;;;10.67;9.33;;;;;;;;5105403;27;45684;-73
2022/04/26 12:04:30;;;;;;;;;8.33;7.00;;;;;;;;5114700;27;45422;-70
2022/04/26 12:06:58;;;;;;;;;7.00;7.00;;;;;;;;5114917;27;45327;-72
2022/04/26 12:09:24;;;;;;;;;10.33;8.00;;;;;;;;5111492;27;46671;-72
2022/04/26 12:11:58;;;;;;;;;18.00;11.67;;;;;;;;5113364;27;45265;-72
2022/04/26 12:14:24;;;;;;;;;8.00;8.00;;;;;;;;5113068;27;46200;-72
2022/04/26 12:16:56;;;;;;;;;9.33;9.33;;;;;;;;5113563;27;45869;-72
2022/04/26 12:19:34;;;;;;;;;11.33;9.33;;;;;;;;5113746;27;45370;-72
2022/04/26 12:22:00;;;;;;;;;9.00;6.67;;;;;;;;5114888;27;45456;-71
2022/04/26 12:24:28;;;;;;;;;8.00;7.00;;;;;;;;5114610;27;46480;-71
2022/04/26 12:26:58;;;;;;;;;6.33;6.33;;;;;;;;5114778;27;45272;-72
2022/04/26 12:29:28;;;;;;;;;12.00;7.00;;;;;;;;5114665;27;45297;-71
2022/04/26 12:31:54;;;;;;;;;9.67;7.33;;;;;;;;5115053;27;45257;-72
2022/04/26 12:34:31;;;;;;;;;9.67;8.67;;;;;;;;5113217;27;47435;-70
2022/04/26 12:36:58;;;;;;;;;12.67;8.33;;;;;;;;5114220;27;45476;-71
2022/04/26 12:39:39;;;;;;;;;7.00;7.00;;;;;;;;5112321;27;45411;-72
2022/04/26 12:42:05;;;;;;;;;12.00;10.33;;;;;;;;5113549;27;45228;-71
2022/04/26 12:44:30;;;;;;;;;7.33;7.33;;;;;;;;5114357;27;47386;-72
2022/04/26 12:52:39;;;;;;;;;7.67;6.00;;;;;;;;5114594;27;45288;-74
2022/04/26 12:55:04;;;;;;;;;10.33;8.00;;;;;;;;5114454;27;46052;-74
2022/04/26 12:57:29;;;;;;;;;6.00;6.00;;;;;;;;5114309;27;45287;-75
2022/04/26 12:59:54;;;;;;;;;5.00;5.00;;;;;;;;5114689;27;46054;-74
2022/04/26 13:02:20;;;;;;;;;7.33;6.67;;;;;;;;5113331;27;45314;-73
2022/04/26 13:04:45;;;;;;;;;7.00;6.00;;;;;;;;5105856;27;46089;-74
2022/04/26 13:07:10;;;;;;;;;7.00;6.33;;;;;;;;5100659;27;45386;-75
2022/04/26 13:09:35;;;;;;;;;5.00;5.00;;;;;;;;5100144;27;45770;-74
2022/04/26 13:12:01;;;;;;;;;5.33;5.33;;;;;;;;5111955;27;45295;-74
2022/04/26 13:14:27;;;;;;;;;9.33;7.00;;;;;;;;5120970;27;45677;-74
2022/04/26 13:16:52;;;;;;;;;5.33;4.00;;;;;;;;5104942;27;45158;-74
2022/04/26 13:19:17;;;;;;;;;6.00;5.00;;;;;;;;5100590;27;45527;-74
2022/04/26 13:21:43;;;;;;;;;6.67;6.33;;;;;;;;5100627;27;45287;-73
2022/04/26 13:24:08;;;;;;;;;6.67;5.33;;;;;;;;5099806;27;47372;-74
2022/04/26 13:26:35;;;;;;;;;8.00;6.00;;;;;;;;5099634;27;45338;-73
2022/04/26 13:29:01;;;;;;;;;5.33;4.33;;;;;;;;5099393;27;45313;-74
2022/04/26 13:31:26;;;;;;;;;5.00;5.00;;;;;;;;5118672;27;45474;-74
2022/04/26 13:33:51;;;;;;;;;5.00;5.00;;;;;;;;5098860;27;45637;-72
2022/04/26 13:36:17;;;;;;;;;4.00;4.00;;;;;;;;5098583;27;45395;-73
2022/04/26 13:38:42;;;;;;;;;5.67;5.67;;;;;;;;5100002;27;45403;-72
2022/04/26 13:41:07;;;;;;;;;5.00;5.00;;;;;;;;5099642;27;45452;-72
2022/04/26 13:43:33;;;;;;;;;5.33;5.33;;;;;;;;5099823;27;46516;-72
2022/04/26 13:45:58;;;;;;;;;6.00;6.00;;;;;;;;5097939;27;45463;-74
2022/04/26 13:48:23;;;;;;;;;4.00;4.00;;;;;;;;5099157;27;45731;-74
2022/04/26 13:50:50;;;;;;;;;5.00;5.00;;;;;;;;5099387;27;45417;-73
2022/04/26 13:53:15;;;;;;;;;7.33;7.00;;;;;;;;5109840;27;46174;-74
2022/04/26 13:55:40;;;;;;;;;6.33;6.33;;;;;;;;5099191;27;45389;-74
2022/04/26 13:58:08;;;;;;;;;7.33;6.00;;;;;;;;5106858;27;45476;-73
2022/04/26 14:00:35;;;;;;;;;7.33;5.67;;;;;;;;5099725;27;45465;-72
2022/04/26 14:03:00;;;;;;;;;6.00;5.67;;;;;;;;5099025;27;46211;-73
2022/04/26 14:05:27;;;;;;;;;4.67;3.00;;;;;;;;5098922;27;45284;-74
2022/04/26 14:07:52;;;;;;;;;8.00;8.00;;;;;;;;5099274;27;45370;-73
2022/04/26 14:10:18;;;;;;;;;6.00;5.33;;;;;;;;5099143;27;45407;-73
2022/04/26 14:12:43;;;;;;;;;5.33;4.00;;;;;;;;5098665;27;45414;-72
2022/04/26 14:23:20;;;;;;;;;4.33;4.33;;;;;;;;5077992;28;45413;-72
2022/04/26 14:25:46;;;;;;;;;6.00;6.00;;;;;;;;5078132;28;45440;-72
2022/04/26 14:28:11;;;;;;;;;5.00;5.00;;;;;;;;5087462;27;45414;-72
2022/04/26 14:30:36;;;;;;;;;3.33;3.00;;;;;;;;5098477;27;45326;-72
2022/04/26 14:33:02;;;;;;;;;7.67;5.00;;;;;;;;5098247;27;46466;-71
2022/04/26 14:35:32;;;;;;;;;6.00;5.00;;;;;;;;5098319;27;45635;-71
2022/04/26 14:37:58;;;;;;;;;5.00;5.00;;;;;;;;5098497;27;45356;-72
2022/04/26 14:40:23;;;;;;;;;6.00;6.00;;;;;;;;5098727;27;45431;-72
2022/04/26 14:42:49;;;;;;;;;6.00;4.33;;;;;;;;5098057;27;46628;-72
2022/04/26 14:45:14;;;;;;;;;6.67;5.00;;;;;;;;5098433;27;45310;-71
2022/04/26 14:47:40;;;;;;;;;5.67;5.00;;;;;;;;5098355;27;45314;-72
2022/04/26 14:50:08;;;;;;;;;6.00;5.00;;;;;;;;5098441;27;45402;-72
2022/04/26 14:52:33;;;;;;;;;4.67;4.67;;;;;;;;5097967;27;46164;-70
2022/04/26 14:55:01;;;;;;;;;8.67;7.00;;;;;;;;5098112;27;45389;-70
2022/04/26 14:57:26;;;;;;;;;5.33;5.33;;;;;;;;5098260;27;45483;-70
2022/04/26 14:59:51;;;;;;;;;5.33;5.33;;;;;;;;5097722;27;45448;-70
2022/04/26 15:02:17;;;;;;;;;7.00;5.00;;;;;;;;5097677;27;46090;-71
2022/04/26 15:04:43;;;;;;;;;5.67;5.67;;;;;;;;5097632;27;45534;-70
2022/04/26 15:07:09;;;;;;;;;6.67;4.67;;;;;;;;5098056;27;45428;-69
2022/04/26 15:09:42;;;;;;;;;6.00;6.00;;;;;;;;5097864;27;45487;-69
2022/04/26 15:17:36;;;;;;;;;4.67;3.67;;;;;;;;5098061;27;45368;-70
2022/04/26 15:20:03;;;;;;;;;6.33;6.33;;;;;;;;5097967;27;45363;-70
2022/04/26 15:22:28;;;;;;;;;6.67;6.00;;;;;;;;5097073;27;45692;-70
2022/04/26 15:24:54;;;;;;;;;5.00;5.00;;;;;;;;5097294;27;45403;-69
2022/04/26 15:27:20;;;;;;;;;6.00;6.00;;;;;;;;5097642;27;45729;-68
2022/04/26 15:29:46;;;;;;;;;7.33;6.33;;;;;;;;5096738;27;45590;-70
2022/04/26 15:32:11;;;;;;;;;3.00;3.00;;;;;;;;5097656;27;45345;-70
2022/04/26 15:34:37;;;;;;;;;8.33;6.00;;;;;;;;5096799;27;45442;-71
2022/04/26 15:37:03;;;;;;;;;10.00;7.67;;;;;;;;5095433;27;45534;-71
2022/04/26 15:39:28;;;;;;;;;7.00;5.33;;;;;;;;5097646;27;45331;-72
2022/04/26 15:41:54;;;;;;;;;6.00;6.00;;;;;;;;5095332;27;46058;-70
2022/04/26 15:44:19;;;;;;;;;8.00;8.00;;;;;;;;5095938;27;45362;-72
2022/04/26 15:46:46;;;;;;;;;6.00;6.00;;;;;;;;5081746;27;46414;-73
2022/04/26 15:49:11;;;;;;;;;8.33;6.33;;;;;;;;5081369;27;45364;-70
2022/04/26 15:51:36;;;;;;;;;5.33;5.00;;;;;;;;5093676;27;45449;-70
2022/04/26 15:54:02;;;;;;;;;11.33;7.00;;;;;;;;5097003;27;45362;-71
2022/04/26 15:56:27;;;;;;;;;7.00;6.33;;;;;;;;5095049;27;45482;-71
2022/04/26 15:58:52;;;;;;;;;7.33;6.33;;;;;;;;5097577;27;45130;-70
2022/04/26 16:01:18;;;;;;;;;6.67;5.33;;;;;;;;5096802;27;45426;-70
2022/04/26 16:03:43;;;;;;;;;9.33;6.00;;;;;;;;5097287;27;45383;-70
2022/04/26 16:06:08;;;;;;;;;6.67;6.67;;;;;;;;5096370;27;45477;-71
2022/04/26 16:08:35;;;;;;;;;7.67;6.00;;;;;;;;5096372;27;45695;-70
2022/04/26 16:22:06;;;;;;;;;7.00;5.00;;;;;;;;5092371;27;45409;-72
2022/04/26 16:24:38;;;;;;;;;7.67;5.00;;;;;;;;5094715;27;45648;-71
2022/04/26 16:27:03;;;;;;;;;5.00;4.67;;;;;;;;5094655;27;45465;-72
2022/04/26 16:29:29;;;;;;;;;6.00;6.00;;;;;;;;5094636;27;45566;-71
2022/04/26 16:31:54;;;;;;;;;8.67;6.00;;;;;;;;5094503;27;46664;-71
2022/04/26 16:34:20;;;;;;;;;12.00;10.67;;;;;;;;5093890;27;45686;-71
2022/04/26 16:36:46;;;;;;;;;10.33;9.00;;;;;;;;5091074;27;45495;-71
2022/04/26 16:39:11;;;;;;;;;8.67;7.67;;;;;;;;5092942;27;45382;-71
2022/04/26 16:41:37;;;;;;;;;10.67;9.00;;;;;;;;5096403;27;46579;-70
2022/04/26 16:44:02;;;;;;;;;7.33;6.00;;;;;;;;5096761;27;45407;-71
2022/04/26 16:46:30;;;;;;;;;9.67;7.33;;;;;;;;5096004;27;45261;-70
2022/04/26 16:48:55;;;;;;;;;7.00;5.00;;;;;;;;5098116;27;45452;-71
2022/04/26 16:51:22;;;;;;;;;7.33;7.33;;;;;;;;5086567;27;47000;-71
2022/04/26 16:53:48;;;;;;;;;8.67;6.00;;;;;;;;5088848;27;45465;-71
2022/04/26 16:56:13;;;;;;;;;5.00;5.00;;;;;;;;5093297;27;45405;-71
2022/04/26 16:58:38;;;;;;;;;9.67;5.00;;;;;;;;5082506;27;45625;-70
2022/04/26 17:01:04;;;;;;;;;9.00;5.33;;;;;;;;5097884;27;45536;-71
2022/04/26 17:03:29;;;;;;;;;6.33;6.33;;;;;;;;5103708;27;45585;-72
2022/04/26 17:05:54;;;;;;;;;7.33;6.33;;;;;;;;5097472;27;45365;-72
2022/04/26 17:08:19;;;;;;;;;7.00;7.00;;;;;;;;5100238;27;45432;-72
2022/04/26 17:10:45;;;;;;;;;5.33;5.00;;;;;;;;5099810;27;45660;-72
2022/04/26 17:13:11;;;;;;;;;8.00;5.00;;;;;;;;5099414;27;45252;-73
2022/04/26 17:15:37;;;;;;;;;8.33;6.33;;;;;;;;5099001;27;45553;-71
2022/04/26 17:18:02;;;;;;;;;5.00;5.00;;;;;;;;5099967;27;45591;-72
2022/04/26 17:20:32;;;;;;;;;9.00;6.00;;;;;;;;5098769;27;47659;-75
2022/04/26 17:22:58;;;;;;;;;7.33;5.67;;;;;;;;5098898;27;45429;-73
2022/04/26 17:25:23;;;;;;;;;5.33;5.33;;;;;;;;5099716;27;45418;-72
2022/04/26 17:27:49;;;;;;;;;8.67;5.67;;;;;;;;5099753;27;45303;-72
2022/04/26 17:30:14;;;;;;;;;5.00;5.00;;;;;;;;5099037;27;45755;-73
2022/04/26 17:32:40;;;;;;;;;7.00;6.00;;;;;;;;5099412;27;45490;-72
2022/04/26 17:35:06;;;;;;;;;7.00;7.00;;;;;;;;5099214;27;45480;-73
2022/04/26 17:37:32;;;;;;;;;4.67;3.67;;;;;;;;5099377;27;45324;-72
2022/04/26 17:39:57;;;;;;;;;9.00;6.33;;;;;;;;5098651;27;46277;-72
2022/04/26 17:42:24;;;;;;;;;4.67;4.67;;;;;;;;5099313;27;45352;-71
2022/04/26 17:44:50;;;;;;;;;7.33;5.33;;;;;;;;5099323;27;45405;-72
2022/04/26 17:47:15;;;;;;;;;4.67;4.67;;;;;;;;5097245;27;45432;-71
2022/04/26 17:49:42;;;;;;;;;5.00;5.00;;;;;;;;5099286;27;45538;-70
2022/04/26 17:52:07;;;;;;;;;7.33;7.33;;;;;;;;5099242;27;45778;-70
2022/04/26 17:57:16;;;;;;;;;12.67;12.33;;;;;;;;5099944;27;45342;-71
2022/04/26 17:59:42;;;;;;;;;9.33;7.67;;;;;;;;5099370;27;46307;-71
2022/04/26 18:02:09;;;;;;;;;10.00;10.00;;;;;;;;5099762;27;45437;-70
2022/04/26 18:04:34;;;;;;;;;6.33;5.00;;;;;;;;5099687;27;45354;-70
2022/04/26 18:06:59;;;;;;;;;8.00;8.00;;;;;;;;5099862;27;45485;-70
2022/04/26 18:09:24;;;;;;;;;10.33;9.67;;;;;;;;5099337;27;46485;-71
2022/04/26 18:11:50;;;;;;;;;13.33;12.00;;;;;;;;5099430;27;45414;-70
2022/04/26 18:14:15;;;;;;;;;14.33;12.00;;;;;;;;5099700;27;45355;-70
2022/04/26 18:16:41;;;;;;;;;11.00;9.00;;;;;;;;5099406;27;45339;-71
2022/04/26 18:19:07;;;;;;;;;9.00;8.33;;;;;;;;5099302;27;46239;-72
2022/04/26 18:21:32;;;;;;;;;15.00;12.00;;;;;;;;5099253;27;45244;-70
2022/04/26 18:23:58;;;;;;;;;11.00;10.33;;;;;;;;5099424;27;45434;-71
2022/04/26 18:26:23;;;;;;;;;22.33;20.00;;;;;;;;5099654;27;45266;-71
2022/04/26 18:28:50;;;;;;;;;13.00;13.00;;;;;;;;5098806;27;46633;-70
2022/04/26 18:31:17;;;;;;;;;14.00;10.00;;;;;;;;5099213;27;45410;-71
2022/04/26 18:33:43;;;;;;;;;13.67;13.33;;;;;;;;5099013;27;45406;-70
2022/04/26 18:36:09;;;;;;;;;12.33;9.00;;;;;;;;5099327;27;45318;-71
2022/04/26 18:38:38;;;;;;;;;13.67;13.67;;;;;;;;5098858;27;45469;-71
2022/04/26 18:41:04;;;;;;;;;13.33;12.67;;;;;;;;5098996;27;45363;-71
2022/04/26 18:43:29;;;;;;;;;14.33;12.33;;;;;;;;5099267;27;45215;-70
2022/04/26 18:45:55;;;;;;;;;15.00;12.00;;;;;;;;5099154;27;45276;-71
2022/04/26 18:48:20;;;;;;;;;13.00;11.67;;;;;;;;5098663;27;45708;-71
2022/04/26 18:50:46;;;;;;;;;14.33;13.33;;;;;;;;5098750;27;45158;-70
2022/04/26 18:53:11;;;;;;;;;13.33;9.67;;;;;;;;5098645;27;45613;-70
2022/04/26 18:55:41;;;;;;;;;11.33;10.00;;;;;;;;5099179;27;45365;-71